Terminal Aerodrome Forecast
Issued by NWS

Home | Current Version | Previous Version | Text Only | Print | Product List | Glossary On
Versions: 1 2 3 4 5 6 7 8 9 10 11 12 13 14 15 16 17 18 19 20 21 22 23 24
000
FTAK31 PANC 222356 AAA
TAFATK
TAF AMD
PATK 222356Z 2300/2324 01004KT P6SM VCSH OVC040
      TEMPO 2300/2303 3SM -SHSN
     FM230600 VRB03KT P6SM VCFG SCT002 BKN020
     FM232000 VRB03KT P6SM SCT020 BKN035=

USA.gov is the U.S. government's official web portal to all federal, state and local government web resources and services.